createdAt,value
2018-09-10T00:01:34.004Z,13.40
2018-09-10T00:04:02.061Z,13.30
2018-09-10T00:06:30.105Z,13.30
2018-09-10T00:08:58.151Z,13.30
2018-09-10T00:11:26.297Z,13.30
2018-09-10T00:13:54.324Z,13.20
2018-09-10T00:16:22.386Z,13.20
2018-09-10T00:18:50.445Z,13.10
2018-09-10T00:21:18.492Z,12.90
2018-09-10T00:23:46.572Z,12.80
2018-09-10T00:26:14.620Z,12.70
2018-09-10T00:28:42.677Z,12.60
2018-09-10T00:31:10.726Z,12.50
2018-09-10T00:33:38.776Z,12.40
2018-09-10T00:36:06.857Z,12.40
2018-09-10T00:38:34.881Z,12.30
2018-09-10T00:41:02.938Z,12.30
2018-09-10T00:43:30.993Z,12.30
2018-09-10T00:45:59.047Z,12.30
2018-09-10T00:48:27.106Z,12.20
2018-09-10T00:50:55.194Z,12.20
2018-09-10T00:53:23.241Z,12.20
2018-09-10T00:55:51.286Z,12.20
2018-09-10T00:58:19.344Z,12.20
2018-09-10T01:00:47.478Z,12.20
2018-09-10T01:03:15.517Z,12.20
2018-09-10T01:05:43.562Z,12.20
2018-09-10T01:08:11.612Z,12.10
2018-09-10T01:10:39.714Z,12.10
2018-09-10T01:13:07.746Z,12.10
2018-09-10T01:15:35.809Z,12.20
2018-09-10T01:18:03.874Z,12.20
2018-09-10T01:20:31.923Z,12.20
2018-09-10T01:22:59.965Z,12.20
2018-09-10T01:25:28.123Z,12.20
2018-09-10T01:27:56.169Z,12.20
2018-09-10T01:30:24.225Z,12.20
2018-09-10T01:32:52.274Z,12.30
2018-09-10T01:35:20.317Z,12.30
2018-09-10T01:37:48.360Z,12.30
2018-09-10T01:40:16.403Z,12.20
2018-09-10T01:42:44.475Z,12.20
2018-09-10T01:45:12.526Z,12.20
2018-09-10T01:47:40.603Z,12.20
2018-09-10T01:50:08.641Z,12.10
2018-09-10T01:52:36.688Z,12.10
2018-09-10T01:55:04.765Z,12.00
2018-09-10T01:57:32.813Z,12.00
2018-09-10T02:00:00.878Z,12.00
2018-09-10T02:02:28.933Z,11.90
2018-09-10T02:04:56.986Z,11.80
2018-09-10T02:07:25.034Z,11.80
2018-09-10T02:09:53.088Z,11.70
2018-09-10T02:12:24.603Z,11.70
2018-09-10T02:14:53.403Z,11.70
2018-09-10T02:17:21.689Z,11.60
2018-09-10T02:19:49.720Z,11.60
2018-09-10T02:22:17.784Z,11.60
2018-09-10T02:24:45.843Z,11.50
2018-09-10T02:27:13.934Z,11.40
2018-09-10T02:29:41.937Z,11.40
2018-09-10T02:32:09.995Z,11.40
2018-09-10T02:34:38.032Z,11.40
2018-09-10T02:37:06.193Z,11.40
2018-09-10T02:39:34.285Z,11.30
2018-09-10T02:42:02.438Z,11.30
2018-09-10T02:44:30.477Z,11.30
2018-09-10T02:46:58.518Z,11.30
2018-09-10T02:49:26.709Z,11.30
2018-09-10T02:51:54.803Z,11.30
2018-09-10T02:54:22.861Z,11.30
2018-09-10T02:56:50.947Z,11.30
2018-09-10T02:59:18.973Z,11.20
2018-09-10T03:01:47.115Z,11.20
2018-09-10T03:04:15.153Z,11.20
2018-09-10T03:06:43.204Z,11.20
2018-09-10T03:09:11.260Z,11.20
2018-09-10T03:11:39.352Z,11.20
2018-09-10T03:14:07.562Z,11.20
2018-09-10T03:16:35.604Z,11.20
2018-09-10T03:19:03.661Z,11.30
2018-09-10T03:21:31.794Z,11.30
2018-09-10T03:24:00.117Z,11.30
2018-09-10T03:26:28.155Z,11.40
2018-09-10T03:28:56.220Z,11.40
2018-09-10T03:31:24.341Z,11.40
2018-09-10T03:33:52.368Z,11.40
2018-09-10T03:36:20.413Z,11.40
2018-09-10T03:38:48.462Z,11.30
2018-09-10T03:41:16.514Z,11.30
2018-09-10T03:43:44.658Z,11.20
2018-09-10T03:46:12.691Z,11.20
2018-09-10T03:48:40.745Z,11.20
2018-09-10T03:51:08.811Z,11.10
2018-09-10T03:53:36.895Z,11.10
2018-09-10T03:56:04.933Z,11.10
2018-09-10T03:58:32.977Z,11.00
2018-09-10T04:01:01.252Z,11.00
2018-09-10T04:03:29.281Z,10.90
2018-09-10T04:05:57.339Z,11.00
2018-09-10T04:08:25.413Z,11.00
2018-09-10T04:10:53.461Z,11.00
2018-09-10T04:13:21.510Z,10.90
2018-09-10T04:15:49.560Z,10.90
2018-09-10T04:18:17.704Z,10.80
2018-09-10T04:20:45.793Z,10.80
2018-09-10T04:23:13.841Z,10.70
2018-09-10T04:25:41.906Z,10.70
2018-09-10T04:28:09.952Z,10.60
2018-09-10T04:30:38.004Z,10.60
2018-09-10T04:33:06.051Z,10.60
2018-09-10T04:35:34.101Z,10.60
2018-09-10T04:38:02.141Z,10.60
2018-09-10T04:40:30.198Z,10.60
2018-09-10T04:42:59.412Z,10.60
2018-09-10T04:45:27.471Z,10.60
2018-09-10T04:47:55.509Z,10.60
2018-09-10T04:50:23.563Z,10.60
2018-09-10T04:52:51.618Z,10.60
2018-09-10T04:55:19.729Z,10.70
2018-09-10T04:57:48.687Z,10.60
2018-09-10T05:00:16.745Z,10.60
2018-09-10T05:02:44.805Z,10.60
2018-09-10T05:05:14.213Z,10.60
2018-09-10T05:07:42.261Z,10.60
2018-09-10T05:10:10.393Z,10.60
2018-09-10T05:12:38.416Z,10.60
2018-09-10T05:15:06.477Z,10.60
2018-09-10T05:17:34.531Z,10.70
2018-09-10T05:20:02.576Z,10.70
2018-09-10T05:22:30.633Z,10.80
2018-09-10T05:27:43.413Z,10.90
2018-09-10T05:30:11.457Z,11.00
2018-09-10T05:32:39.500Z,11.00
2018-09-10T05:35:08.074Z,11.10
2018-09-10T05:37:36.120Z,11.30
2018-09-10T05:40:09.316Z,11.50
2018-09-10T05:42:37.418Z,11.50
2018-09-10T05:45:07.340Z,11.60
2018-09-10T05:47:35.425Z,11.70
2018-09-10T05:50:03.481Z,11.80
2018-09-10T05:52:31.540Z,11.90
2018-09-10T05:54:59.604Z,12.00
2018-09-10T05:57:27.661Z,12.10
2018-09-10T05:59:57.267Z,12.20
2018-09-10T06:02:25.365Z,12.30
2018-09-10T06:04:55.414Z,12.40
2018-09-10T06:07:23.460Z,12.60
2018-09-10T06:09:51.513Z,12.70
2018-09-10T06:12:21.882Z,12.80
2018-09-10T06:14:50.964Z,13.00
2018-09-10T06:17:25.958Z,13.10
2018-09-10T06:19:55.309Z,13.30
2018-09-10T06:22:23.459Z,13.50
2018-09-10T06:24:51.638Z,13.70
2018-09-10T06:27:19.837Z,13.80
2018-09-10T06:29:49.219Z,14.00
2018-09-10T06:32:17.273Z,14.10
2018-09-10T06:34:45.329Z,14.50
2018-09-10T06:37:13.539Z,15.00
2018-09-10T06:39:41.525Z,15.70
2018-09-10T06:42:11.930Z,16.60
2018-09-10T06:44:40.001Z,17.80
2018-09-10T06:47:08.041Z,19.50
2018-09-10T06:49:36.092Z,21.00
2018-09-10T06:52:04.153Z,22.10
2018-09-10T06:54:32.200Z,23.00
2018-09-10T06:57:01.732Z,23.70
2018-09-10T06:59:29.840Z,24.20
2018-09-10T07:01:59.485Z,24.80
2018-09-10T07:04:27.651Z,25.80
2018-09-10T07:06:55.696Z,26.50
2018-09-10T07:09:25.606Z,26.90
2018-09-10T07:11:53.671Z,26.70
2018-09-10T07:14:21.745Z,26.40
2018-09-10T07:16:49.793Z,26.30
2018-09-10T07:19:17.897Z,26.50
2018-09-10T07:21:45.940Z,26.40
2018-09-10T07:24:16.472Z,26.90
2018-09-10T07:26:44.564Z,27.50
2018-09-10T07:29:13.001Z,27.50
2018-09-10T07:31:41.057Z,26.80
2018-09-10T07:34:09.128Z,26.50
2018-09-10T07:36:37.186Z,26.60
2018-09-10T07:39:08.048Z,26.90
2018-09-10T07:41:36.112Z,26.90
2018-09-10T07:44:08.913Z,26.50
2018-09-10T07:46:36.972Z,26.90
2018-09-10T07:49:07.179Z,26.80
2018-09-10T07:51:36.298Z,26.40
2018-09-10T07:54:04.926Z,26.20
2018-09-10T07:56:32.987Z,26.70
2018-09-10T07:59:01.033Z,27.30
2018-09-10T08:01:29.089Z,27.50
2018-09-10T08:03:57.153Z,27.50
2018-09-10T08:06:25.221Z,27.50
2018-09-10T08:08:53.269Z,27.20
2018-09-10T08:11:21.324Z,27.00
2018-09-10T08:13:49.378Z,26.60
2018-09-10T08:16:17.441Z,26.10
2018-09-10T08:18:48.145Z,26.40
2018-09-10T08:21:16.670Z,27.10
2018-09-10T08:23:44.725Z,27.80
2018-09-10T08:26:12.801Z,28.50
2018-09-10T08:28:40.962Z,28.80
2018-09-10T08:31:09.016Z,28.40
2018-09-10T08:33:38.603Z,28.40
2018-09-10T08:36:06.661Z,28.30
2018-09-10T08:38:34.705Z,27.90
2018-09-10T08:41:02.758Z,27.60
2018-09-10T08:43:32.185Z,27.40
2018-09-10T08:46:00.304Z,26.90
2018-09-10T08:48:28.403Z,26.80
2018-09-10T08:50:57.915Z,26.60
2018-09-10T08:53:26.326Z,26.10
2018-09-10T08:55:54.641Z,25.70
2018-09-10T08:58:22.436Z,25.40
2018-09-10T09:00:51.284Z,25.20
2018-09-10T09:03:19.371Z,25.20
2018-09-10T09:05:47.463Z,25.20
2018-09-10T09:08:17.083Z,24.90
2018-09-10T09:10:45.177Z,25.30
2018-09-10T09:13:13.252Z,25.70
2018-09-10T09:15:42.215Z,25.70
2018-09-10T09:18:10.345Z,25.50
2018-09-10T09:20:38.416Z,25.20
2018-09-10T09:23:06.621Z,25.20
2018-09-10T09:25:34.687Z,25.40
2018-09-10T09:28:03.884Z,25.80
2018-09-10T09:30:32.050Z,26.10
2018-09-10T09:33:00.088Z,26.40
2018-09-10T09:35:35.511Z,27.00
2018-09-10T09:38:09.384Z,27.30
2018-09-10T09:40:43.266Z,27.10
2018-09-10T09:43:16.863Z,26.30
2018-09-10T09:45:50.409Z,25.60
2018-09-10T09:48:20.175Z,25.40
2018-09-10T09:50:48.298Z,25.50
2018-09-10T09:53:16.357Z,26.00
2018-09-10T09:55:44.405Z,26.20
2018-09-10T09:58:12.456Z,26.30
2018-09-10T10:00:45.869Z,26.40
2018-09-10T10:03:14.817Z,26.40
2018-09-10T10:05:42.968Z,26.40
2018-09-10T10:08:11.164Z,26.20
2018-09-10T10:10:39.453Z,25.70
2018-09-10T10:13:07.526Z,25.50
2018-09-10T10:15:35.713Z,25.50
2018-09-10T10:18:04.025Z,25.30
2018-09-10T10:20:32.056Z,25.00
2018-09-10T10:23:00.117Z,24.50
2018-09-10T10:25:30.025Z,24.50
2018-09-10T10:27:58.205Z,24.40
2018-09-10T10:30:27.186Z,24.30
2018-09-10T10:32:55.274Z,24.30
2018-09-10T10:35:23.317Z,24.30
2018-09-10T10:37:51.369Z,24.40
2018-09-10T10:40:19.421Z,24.50
2018-09-10T10:42:47.628Z,24.70
2018-09-10T10:45:15.717Z,24.80
2018-09-10T10:47:43.909Z,25.20
2018-09-10T10:50:11.981Z,25.40
2018-09-10T10:52:40.036Z,25.80
2018-09-10T10:55:08.100Z,26.20
2018-09-10T10:57:36.177Z,26.40
2018-09-10T11:00:04.569Z,26.90
2018-09-10T11:02:32.647Z,27.60
2018-09-10T11:05:00.700Z,28.70
2018-09-10T11:07:28.749Z,30.10
2018-09-10T11:09:56.797Z,32.10
2018-09-10T11:12:24.939Z,32.60
2018-09-10T11:14:52.982Z,33.20
2018-09-10T11:17:21.044Z,33.40
2018-09-10T11:19:49.109Z,34.00
2018-09-10T11:22:17.187Z,34.20
2018-09-10T11:24:45.260Z,33.70
2018-09-10T11:27:13.333Z,34.20
2018-09-10T11:29:41.405Z,34.80
2018-09-10T11:32:09.525Z,34.90
2018-09-10T11:34:37.633Z,34.80
2018-09-10T11:37:05.659Z,36.00
2018-09-10T11:39:33.713Z,37.30
2018-09-10T11:42:01.760Z,38.50
2018-09-10T11:44:29.835Z,38.50
2018-09-10T11:46:57.925Z,38.30
2018-09-10T11:49:25.979Z,38.60
2018-09-10T11:51:54.025Z,38.00
2018-09-10T11:54:22.085Z,38.10
2018-09-10T11:56:50.146Z,38.50
2018-09-10T11:59:18.385Z,39.10
2018-09-10T12:01:46.483Z,38.60
2018-09-10T12:04:14.516Z,38.10
2018-09-10T12:06:42.560Z,38.20
2018-09-10T12:09:11.309Z,38.50
2018-09-10T12:11:39.602Z,38.00
2018-09-10T12:14:07.873Z,37.00
2018-09-10T12:16:35.924Z,37.10
2018-09-10T12:19:04.002Z,37.20
2018-09-10T12:21:32.078Z,37.60
2018-09-10T12:24:00.117Z,37.70
2018-09-10T12:26:28.211Z,36.70
2018-09-10T12:28:56.238Z,36.00
2018-09-10T12:31:24.278Z,35.60
2018-09-10T12:33:52.337Z,35.10
2018-09-10T12:36:20.384Z,34.70
2018-09-10T12:38:48.449Z,34.80
2018-09-10T12:41:16.517Z,34.80
2018-09-10T12:43:44.556Z,34.80
2018-09-10T12:46:12.616Z,34.80
2018-09-10T12:48:40.680Z,34.20
2018-09-10T12:51:08.745Z,33.80
2018-09-10T12:53:36.808Z,33.70
2018-09-10T12:56:04.852Z,33.80
2018-09-10T12:58:32.907Z,33.70
2018-09-10T13:01:00.962Z,33.50
2018-09-10T13:03:29.024Z,33.20
2018-09-10T13:05:57.132Z,33.40
2018-09-10T13:08:25.197Z,33.40
2018-09-10T13:10:53.252Z,33.10
2018-09-10T13:13:21.390Z,32.60
2018-09-10T13:15:49.704Z,32.40
2018-09-10T13:18:17.809Z,32.40
2018-09-10T13:20:46.066Z,32.40
2018-09-10T13:23:14.138Z,32.20
2018-09-10T13:25:42.188Z,32.20
2018-09-10T13:28:10.310Z,32.40
2018-09-10T13:30:38.366Z,32.70
2018-09-10T13:33:06.446Z,32.90
2018-09-10T13:35:34.566Z,32.60
2018-09-10T13:38:02.596Z,32.50
2018-09-10T13:40:30.653Z,32.30
2018-09-10T13:42:58.761Z,32.10
2018-09-10T13:45:26.799Z,32.10
2018-09-10T13:47:54.883Z,32.00
2018-09-10T13:50:22.916Z,31.80
2018-09-10T13:52:50.968Z,31.50
2018-09-10T13:55:19.047Z,31.00
2018-09-10T13:57:47.113Z,30.60
2018-09-10T14:00:15.174Z,30.50
2018-09-10T14:02:43.225Z,30.20
2018-09-10T14:05:11.281Z,30.10
2018-09-10T14:07:39.339Z,30.40
2018-09-10T14:10:07.442Z,30.80
2018-09-10T14:12:35.631Z,31.00
2018-09-10T14:15:03.705Z,30.80
2018-09-10T14:17:31.768Z,31.00
2018-09-10T14:19:59.824Z,31.40
2018-09-10T14:22:27.886Z,31.70
2018-09-10T14:24:55.944Z,32.20
2018-09-10T14:27:24.087Z,32.50
2018-09-10T14:29:52.073Z,32.30
2018-09-10T14:32:20.173Z,32.30
2018-09-10T14:34:48.284Z,32.40
2018-09-10T14:37:16.298Z,32.70
2018-09-10T14:39:44.365Z,32.90
2018-09-10T14:42:12.417Z,33.10
2018-09-10T14:44:40.477Z,33.20
2018-09-10T14:47:08.525Z,33.20
2018-09-10T14:49:36.601Z,33.20
2018-09-10T14:52:04.673Z,33.20
2018-09-10T14:54:32.766Z,33.10
2018-09-10T14:57:00.802Z,33.00
2018-09-10T14:59:28.869Z,32.80
2018-09-10T15:01:56.944Z,32.60
2018-09-10T15:04:25.246Z,32.40
2018-09-10T15:06:53.291Z,32.30
2018-09-10T15:09:21.376Z,32.20
2018-09-10T15:11:49.564Z,32.00
2018-09-10T15:14:17.620Z,31.80
2018-09-10T15:16:45.732Z,31.40
2018-09-10T15:19:14.092Z,30.90
2018-09-10T15:21:42.151Z,30.50
2018-09-10T15:24:10.294Z,30.20
2018-09-10T15:26:38.333Z,30.00
2018-09-10T15:29:06.401Z,30.00
2018-09-10T15:31:34.665Z,30.00
2018-09-10T15:34:02.734Z,30.00
2018-09-10T15:36:30.796Z,30.10
2018-09-10T15:38:58.845Z,30.20
2018-09-10T15:41:26.957Z,30.40
2018-09-10T15:43:55.041Z,30.40
2018-09-10T15:46:23.104Z,30.50
2018-09-10T15:48:51.162Z,30.60
2018-09-10T15:51:19.298Z,30.60
2018-09-10T15:53:47.353Z,30.60
2018-09-10T15:56:15.460Z,30.50
2018-09-10T15:58:43.556Z,30.40
2018-09-10T16:01:11.637Z,30.20
2018-09-10T16:03:39.688Z,30.10
2018-09-10T16:06:07.839Z,29.90
2018-09-10T16:08:35.869Z,29.80
2018-09-10T16:11:10.739Z,29.70
2018-09-10T16:13:38.813Z,29.60
2018-09-10T16:16:07.081Z,29.50
2018-09-10T16:18:35.213Z,29.50
2018-09-10T16:21:03.273Z,29.30
2018-09-10T16:23:31.583Z,29.10
2018-09-10T16:25:59.656Z,29.00
2018-09-10T16:28:27.781Z,28.80
2018-09-10T16:30:55.855Z,28.70
2018-09-10T16:33:23.961Z,28.60
2018-09-10T16:35:52.019Z,28.50
2018-09-10T16:38:20.133Z,28.40
2018-09-10T16:40:48.196Z,28.30
2018-09-10T16:43:16.297Z,28.30
2018-09-10T16:45:44.356Z,28.20
2018-09-10T16:48:12.440Z,28.20
2018-09-10T16:50:40.598Z,28.20
2018-09-10T16:53:08.649Z,28.10
2018-09-10T16:55:37.013Z,28.00
2018-09-10T16:58:05.092Z,28.00
2018-09-10T17:00:33.158Z,28.00
2018-09-10T17:03:01.215Z,27.90
2018-09-10T17:05:29.300Z,27.80
2018-09-10T17:07:57.444Z,27.70
2018-09-10T17:10:25.509Z,27.70
2018-09-10T17:13:00.465Z,27.60
2018-09-10T17:15:28.530Z,27.60
2018-09-10T17:17:56.593Z,27.50
2018-09-10T17:20:24.642Z,27.40
2018-09-10T17:22:52.799Z,27.40
2018-09-10T17:25:20.757Z,27.40
2018-09-10T17:27:48.873Z,27.30
2018-09-10T17:30:16.962Z,27.20
2018-09-10T17:32:44.997Z,27.20
2018-09-10T17:35:13.225Z,27.10
2018-09-10T17:37:41.377Z,27.00
2018-09-10T17:40:09.469Z,27.00
2018-09-10T17:42:37.609Z,26.90
2018-09-10T17:45:05.757Z,26.70
2018-09-10T17:50:08.365Z,26.50
2018-09-10T17:52:36.432Z,26.30
2018-09-10T17:55:04.490Z,26.20
2018-09-10T17:57:32.552Z,26.00
2018-09-10T18:00:00.621Z,25.90
2018-09-10T18:02:28.669Z,25.90
2018-09-10T18:04:56.748Z,25.70
2018-09-10T18:07:24.799Z,25.60
2018-09-10T18:09:52.889Z,25.50
2018-09-10T18:12:20.954Z,25.40
2018-09-10T18:14:49.140Z,25.30
2018-09-10T18:17:17.210Z,25.20
2018-09-10T18:19:45.325Z,25.10
2018-09-10T18:22:13.380Z,25.00
2018-09-10T18:24:41.434Z,24.90
2018-09-10T18:27:09.485Z,24.80
2018-09-10T18:29:37.803Z,24.80
2018-09-10T18:32:05.973Z,24.80
2018-09-10T18:34:34.031Z,24.70
2018-09-10T18:37:02.141Z,24.70
2018-09-10T18:39:30.202Z,24.60
2018-09-10T18:41:58.332Z,24.60
2018-09-10T18:44:26.464Z,24.50
2018-09-10T18:46:54.509Z,24.50
2018-09-10T18:49:22.560Z,24.50
2018-09-10T18:51:50.622Z,24.40
2018-09-10T18:54:18.805Z,24.40
2018-09-10T18:56:46.879Z,24.30
2018-09-10T18:59:15.018Z,24.30
2018-09-10T19:01:43.158Z,24.20
2018-09-10T19:04:11.325Z,24.10
2018-09-10T19:06:39.380Z,24.00
2018-09-10T19:09:09.161Z,23.90
2018-09-10T19:11:37.268Z,23.80
2018-09-10T19:14:05.324Z,23.70
2018-09-10T19:16:33.460Z,23.60
2018-09-10T19:19:01.512Z,23.40
2018-09-10T19:21:29.618Z,23.30
2018-09-10T19:23:57.710Z,23.20
2018-09-10T19:26:25.844Z,23.10
2018-09-10T19:28:53.921Z,23.10
2018-09-10T19:31:21.977Z,23.00
2018-09-10T19:33:50.017Z,22.90
2018-09-10T19:36:18.077Z,22.80
2018-09-10T19:38:46.126Z,22.70
2018-09-10T19:41:14.177Z,22.60
2018-09-10T19:43:42.255Z,22.50
2018-09-10T19:46:10.325Z,22.40
2018-09-10T19:48:38.434Z,22.30
2018-09-10T19:51:06.598Z,22.20
2018-09-10T19:53:34.700Z,22.10
2018-09-10T19:56:02.765Z,22.00
2018-09-10T19:58:30.815Z,21.90
2018-09-10T20:00:58.881Z,21.90
2018-09-10T20:03:26.931Z,21.80
2018-09-10T20:05:54.983Z,21.70
2018-09-10T20:08:23.034Z,21.60
2018-09-10T20:10:51.479Z,21.50
2018-09-10T20:13:19.612Z,21.40
2018-09-10T20:15:47.956Z,21.40
2018-09-10T20:18:16.017Z,21.30
2018-09-10T20:20:44.100Z,21.20
2018-09-10T20:23:12.165Z,21.20
2018-09-10T20:25:40.215Z,21.10
2018-09-10T20:28:08.272Z,21.00
2018-09-10T20:30:36.324Z,20.80
2018-09-10T20:33:04.405Z,20.60
2018-09-10T20:35:32.454Z,20.50
2018-09-10T20:38:00.517Z,20.40
2018-09-10T20:40:28.597Z,20.30
2018-09-10T20:42:56.757Z,20.20
2018-09-10T20:45:24.829Z,20.20
2018-09-10T20:47:53.058Z,20.10
2018-09-10T20:50:21.252Z,20.00
2018-09-10T20:52:49.305Z,19.90
2018-09-10T20:55:17.415Z,19.90
2018-09-10T20:57:45.449Z,19.80
2018-09-10T21:00:13.516Z,19.70
2018-09-10T21:02:41.638Z,19.60
2018-09-10T21:05:09.685Z,19.60
2018-09-10T21:07:37.798Z,19.50
2018-09-10T21:10:06.236Z,19.40
2018-09-10T21:12:34.513Z,19.30
2018-09-10T21:15:02.605Z,19.30
2018-09-10T21:17:30.678Z,19.20
2018-09-10T21:19:58.888Z,19.10
2018-09-10T21:22:27.165Z,19.00
2018-09-10T21:24:55.212Z,19.00
2018-09-10T21:27:23.275Z,18.90
2018-09-10T21:29:51.333Z,18.80
2018-09-10T21:32:19.376Z,18.80
2018-09-10T21:34:47.488Z,18.70
2018-09-10T21:37:15.512Z,18.60
2018-09-10T21:39:43.566Z,18.50
2018-09-10T21:42:12.629Z,18.50
2018-09-10T21:47:15.253Z,18.30
2018-09-10T21:49:43.305Z,18.30
2018-09-10T21:52:11.369Z,18.20
2018-09-10T21:54:39.421Z,18.20
2018-09-10T21:57:07.491Z,18.10
2018-09-10T21:59:35.609Z,18.10
2018-09-10T22:02:03.637Z,18.10
2018-09-10T22:04:31.689Z,18.00
2018-09-10T22:06:59.744Z,18.00
2018-09-10T22:09:27.812Z,18.00
2018-09-10T22:12:01.713Z,18.00
2018-09-10T22:14:29.777Z,17.90
2018-09-10T22:16:57.836Z,17.90
2018-09-10T22:19:25.991Z,17.90
2018-09-10T22:21:54.033Z,17.80
2018-09-10T22:24:22.084Z,17.80
2018-09-10T22:26:50.143Z,17.70
2018-09-10T22:29:18.212Z,17.70
2018-09-10T22:31:46.262Z,17.60
2018-09-10T22:34:14.316Z,17.60
2018-09-10T22:36:42.364Z,17.50
2018-09-10T22:39:12.637Z,17.50
2018-09-10T22:41:40.945Z,17.50
2018-09-10T22:44:09.072Z,17.40
2018-09-10T22:46:43.936Z,17.30
2018-09-10T22:49:11.996Z,17.30
2018-09-10T22:51:40.044Z,17.30
2018-09-10T22:54:08.540Z,17.20
2018-09-10T22:56:36.589Z,17.20
2018-09-10T22:59:04.698Z,17.10
2018-09-10T23:01:32.733Z,17.00
2018-09-10T23:04:00.780Z,17.00
2018-09-10T23:06:28.856Z,17.00
2018-09-10T23:08:56.896Z,16.90
2018-09-10T23:11:24.942Z,16.80
2018-09-10T23:13:53.205Z,16.80
2018-09-10T23:16:21.253Z,16.70
2018-09-10T23:18:49.337Z,16.70
2018-09-10T23:21:17.372Z,16.60
2018-09-10T23:23:45.438Z,16.50
2018-09-10T23:26:13.519Z,16.40
2018-09-10T23:28:41.568Z,16.40
2018-09-10T23:31:09.696Z,16.30
2018-09-10T23:33:37.724Z,16.30
2018-09-10T23:36:05.776Z,16.20
2018-09-10T23:38:33.824Z,16.20
2018-09-10T23:41:01.877Z,16.20
2018-09-10T23:43:29.927Z,16.10
2018-09-10T23:45:58.004Z,16.10
2018-09-10T23:48:26.700Z,16.10
2018-09-10T23:50:54.768Z,16.00
2018-09-10T23:53:22.867Z,16.00
2018-09-10T23:55:50.901Z,15.90
2018-09-10T23:58:18.957Z,15.90
